createdAt,value
2019-03-22T00:00:28.069Z,5.90
2019-03-22T00:01:35.188Z,5.80
2019-03-22T00:02:41.006Z,5.80
2019-03-22T00:03:46.676Z,5.70
2019-03-22T00:04:52.296Z,5.70
2019-03-22T00:05:57.939Z,5.70
2019-03-22T00:07:03.577Z,5.60
2019-03-22T00:08:09.148Z,5.60
2019-03-22T00:09:15.041Z,5.60
2019-03-22T00:10:20.803Z,5.60
2019-03-22T00:11:27.069Z,5.50
2019-03-22T00:12:32.684Z,5.50
2019-03-22T00:13:38.304Z,5.50
2019-03-22T00:14:43.955Z,5.50
2019-03-22T00:15:49.593Z,5.50
2019-03-22T00:16:55.298Z,5.40
2019-03-22T00:18:00.933Z,5.40
2019-03-22T00:19:06.575Z,5.50
2019-03-22T00:20:12.422Z,5.40
2019-03-22T00:21:17.991Z,5.40
2019-03-22T00:22:23.556Z,5.40
2019-03-22T00:23:29.128Z,5.40
2019-03-22T00:24:34.763Z,5.40
2019-03-22T00:25:40.591Z,5.40
2019-03-22T00:26:46.120Z,5.30
2019-03-22T00:27:51.672Z,5.30
2019-03-22T00:28:57.244Z,5.30
2019-03-22T00:30:04.111Z,5.30
2019-03-22T00:31:09.794Z,5.20
2019-03-22T00:32:15.516Z,5.20
2019-03-22T00:33:21.116Z,5.20
2019-03-22T00:34:26.861Z,5.20
2019-03-22T00:35:32.435Z,5.20
2019-03-22T00:36:38.023Z,5.20
2019-03-22T00:37:43.616Z,5.20
2019-03-22T00:38:49.295Z,5.20
2019-03-22T00:39:54.860Z,5.20
2019-03-22T00:41:00.493Z,5.20
2019-03-22T00:42:06.045Z,5.20
2019-03-22T00:43:11.885Z,5.20
2019-03-22T00:44:17.457Z,5.20
2019-03-22T00:45:23.032Z,5.10
2019-03-22T00:46:28.592Z,5.10
2019-03-22T00:47:34.165Z,5.20
2019-03-22T00:48:39.716Z,5.10
2019-03-22T00:49:45.331Z,5.10
2019-03-22T00:50:50.909Z,5.10
2019-03-22T00:51:56.577Z,5.20
2019-03-22T00:53:02.152Z,5.10
2019-03-22T00:54:07.744Z,5.10
2019-03-22T00:55:13.409Z,5.20
2019-03-22T00:56:18.945Z,5.20
2019-03-22T00:57:28.650Z,5.20
2019-03-22T00:58:34.117Z,5.10
2019-03-22T00:59:39.676Z,5.10
2019-03-22T01:00:45.236Z,5.10
2019-03-22T01:01:50.956Z,5.10
2019-03-22T01:02:56.606Z,5.10
2019-03-22T01:04:02.179Z,5.10
2019-03-22T01:05:08.990Z,5.10
2019-03-22T01:06:17.101Z,5.10
2019-03-22T01:07:22.788Z,5.10
2019-03-22T01:08:28.589Z,5.10
2019-03-22T01:09:34.146Z,5.10
2019-03-22T01:10:39.858Z,5.00
2019-03-22T01:11:45.482Z,5.00
2019-03-22T01:12:51.114Z,5.00
2019-03-22T01:13:56.696Z,4.90
2019-03-22T01:15:02.429Z,4.90
2019-03-22T01:16:09.283Z,4.80
2019-03-22T01:17:14.888Z,4.80
2019-03-22T01:18:20.574Z,4.70
2019-03-22T01:19:26.242Z,4.70
2019-03-22T01:20:31.953Z,4.70
2019-03-22T01:21:37.502Z,4.70
2019-03-22T01:22:43.053Z,4.60
2019-03-22T01:23:48.613Z,4.60
2019-03-22T01:24:54.144Z,4.60
2019-03-22T01:25:59.829Z,4.60
2019-03-22T01:27:06.628Z,4.50
2019-03-22T01:28:12.261Z,4.50
2019-03-22T01:29:17.910Z,4.50
2019-03-22T01:30:23.600Z,4.50
2019-03-22T01:31:29.235Z,4.50
2019-03-22T01:32:34.797Z,4.50
2019-03-22T01:33:40.466Z,4.50
2019-03-22T01:34:46.097Z,4.50
2019-03-22T01:35:51.707Z,4.50
2019-03-22T01:36:57.248Z,4.50
2019-03-22T01:38:02.874Z,4.40
2019-03-22T01:39:08.753Z,4.40
2019-03-22T01:40:16.239Z,4.40
2019-03-22T01:41:21.946Z,4.30
2019-03-22T01:42:27.569Z,4.30
2019-03-22T01:43:33.182Z,4.30
2019-03-22T01:44:39.132Z,4.30
2019-03-22T01:45:44.666Z,4.30
2019-03-22T01:46:50.218Z,4.30
2019-03-22T01:47:55.758Z,4.30
2019-03-22T01:49:01.296Z,4.20
2019-03-22T01:50:08.981Z,4.30
2019-03-22T01:51:14.621Z,4.30
2019-03-22T01:52:20.283Z,4.30
2019-03-22T01:53:25.913Z,4.20
2019-03-22T01:54:31.497Z,4.20
2019-03-22T01:55:37.231Z,4.20
2019-03-22T01:56:42.804Z,4.20
2019-03-22T01:57:53.650Z,4.20
2019-03-22T01:58:55.951Z,4.10
2019-03-22T02:00:01.608Z,4.10
2019-03-22T02:01:07.308Z,4.10
2019-03-22T02:02:12.881Z,4.10
2019-03-22T02:03:18.520Z,4.00
2019-03-22T02:04:24.202Z,4.00
2019-03-22T02:05:29.828Z,4.00
2019-03-22T02:06:35.540Z,4.00
2019-03-22T02:07:41.096Z,4.00
2019-03-22T02:08:46.805Z,3.90
2019-03-22T02:09:52.452Z,3.90
2019-03-22T02:10:58.057Z,3.80
2019-03-22T02:12:03.681Z,3.80
2019-03-22T02:13:09.248Z,3.80
2019-03-22T02:14:15.072Z,3.80
2019-03-22T02:15:21.800Z,3.90
2019-03-22T02:16:27.353Z,3.90
2019-03-22T02:17:32.945Z,3.90
2019-03-22T02:18:38.543Z,3.90
2019-03-22T02:19:44.117Z,3.90
2019-03-22T02:20:50.953Z,3.80
2019-03-22T02:21:56.489Z,3.70
2019-03-22T02:23:02.048Z,3.80
2019-03-22T02:24:07.593Z,3.80
2019-03-22T02:25:14.003Z,3.80
2019-03-22T02:26:19.677Z,3.80
2019-03-22T02:27:25.372Z,3.90
2019-03-22T02:28:31.040Z,3.90
2019-03-22T02:29:36.684Z,3.90
2019-03-22T02:30:42.289Z,3.90
2019-03-22T02:31:47.876Z,3.90
2019-03-22T02:32:53.444Z,3.90
2019-03-22T02:33:59.057Z,3.90
2019-03-22T02:35:05.486Z,3.90
2019-03-22T02:36:11.165Z,3.90
2019-03-22T02:37:16.713Z,3.90
2019-03-22T02:38:22.435Z,3.90
2019-03-22T02:39:28.102Z,3.90
2019-03-22T02:40:33.972Z,3.90
2019-03-22T02:41:39.665Z,3.90
2019-03-22T02:42:45.318Z,3.80
2019-03-22T02:43:54.456Z,3.80
2019-03-22T02:44:58.355Z,3.80
2019-03-22T02:46:03.916Z,3.80
2019-03-22T02:47:09.548Z,3.80
2019-03-22T02:48:15.165Z,3.80
2019-03-22T02:49:20.797Z,3.80
2019-03-22T02:50:26.723Z,3.80
2019-03-22T02:51:32.317Z,3.80
2019-03-22T02:52:38.025Z,3.70
2019-03-22T02:53:43.696Z,3.70
2019-03-22T02:54:49.280Z,3.70
2019-03-22T02:55:55.134Z,3.70
2019-03-22T02:57:00.972Z,3.70
2019-03-22T02:58:19.673Z,3.70
2019-03-22T02:59:13.991Z,3.70
2019-03-22T03:00:19.758Z,3.70
2019-03-22T03:01:25.365Z,3.70
2019-03-22T03:02:31.367Z,3.60
2019-03-22T03:03:36.965Z,3.60
2019-03-22T03:04:42.498Z,3.60
2019-03-22T03:05:48.243Z,3.60
2019-03-22T03:06:54.020Z,3.60
2019-03-22T03:07:59.588Z,3.60
2019-03-22T03:09:06.215Z,3.50
2019-03-22T03:10:12.163Z,3.50
2019-03-22T03:11:17.797Z,3.50
2019-03-22T03:12:23.616Z,3.50
2019-03-22T03:13:29.193Z,3.50
2019-03-22T03:14:34.910Z,3.40
2019-03-22T03:15:40.588Z,3.30
2019-03-22T03:16:46.131Z,3.30
2019-03-22T03:17:51.780Z,3.30
2019-03-22T03:18:57.412Z,3.30
2019-03-22T03:20:02.974Z,3.30
2019-03-22T03:21:08.604Z,3.30
2019-03-22T03:22:14.227Z,3.30
2019-03-22T03:23:19.793Z,3.30
2019-03-22T03:24:25.438Z,3.20
2019-03-22T03:25:31.039Z,3.20
2019-03-22T03:26:36.580Z,3.10
2019-03-22T03:27:42.222Z,3.10
2019-03-22T03:28:47.853Z,3.10
2019-03-22T03:29:53.402Z,3.00
2019-03-22T03:30:58.973Z,3.00
2019-03-22T03:32:04.656Z,3.00
2019-03-22T03:33:10.222Z,3.00
2019-03-22T03:34:15.829Z,3.00
2019-03-22T03:35:21.470Z,3.00
2019-03-22T03:36:27.184Z,3.00
2019-03-22T03:37:33.068Z,3.00
2019-03-22T03:38:38.840Z,3.00
2019-03-22T03:39:44.446Z,3.00
2019-03-22T03:40:50.143Z,3.00
2019-03-22T03:41:55.756Z,3.00
2019-03-22T03:43:01.413Z,3.00
2019-03-22T03:44:07.061Z,3.00
2019-03-22T03:45:35.218Z,3.00
2019-03-22T03:46:41.180Z,3.00
2019-03-22T03:47:46.929Z,3.00
2019-03-22T03:48:52.889Z,3.00
2019-03-22T03:49:58.575Z,3.00
2019-03-22T03:51:04.196Z,3.00
2019-03-22T03:52:09.724Z,3.00
2019-03-22T03:53:15.488Z,3.00
2019-03-22T03:54:21.161Z,3.10
2019-03-22T03:55:26.892Z,3.10
2019-03-22T03:56:32.522Z,3.10
2019-03-22T03:57:38.085Z,3.10
2019-03-22T03:58:52.158Z,3.10
2019-03-22T03:59:51.021Z,3.00
2019-03-22T04:00:56.637Z,3.00
2019-03-22T04:02:02.204Z,3.00
2019-03-22T04:03:07.850Z,2.90
2019-03-22T04:04:13.571Z,2.90
2019-03-22T04:05:19.105Z,2.90
2019-03-22T04:06:25.825Z,2.90
2019-03-22T04:07:31.376Z,2.90
2019-03-22T04:08:36.951Z,2.90
2019-03-22T04:09:42.696Z,2.90
2019-03-22T04:10:48.336Z,2.90
2019-03-22T04:11:53.971Z,2.90
2019-03-22T04:12:59.525Z,3.00
2019-03-22T04:14:06.171Z,3.00
2019-03-22T04:15:11.906Z,3.00
2019-03-22T04:16:17.473Z,3.00
2019-03-22T04:17:23.149Z,3.00
2019-03-22T04:18:28.741Z,3.00
2019-03-22T04:19:34.313Z,3.00
2019-03-22T04:20:39.891Z,3.00
2019-03-22T04:21:45.479Z,3.00
2019-03-22T04:22:51.121Z,3.00
2019-03-22T04:23:57.126Z,2.90
2019-03-22T04:25:02.699Z,2.90
2019-03-22T04:26:08.360Z,2.90
2019-03-22T04:27:13.927Z,2.90
2019-03-22T04:28:19.785Z,2.90
2019-03-22T04:29:25.433Z,2.90
2019-03-22T04:30:31.024Z,2.90
2019-03-22T04:31:36.568Z,2.80
2019-03-22T04:32:43.223Z,2.80
2019-03-22T04:33:48.831Z,2.80
2019-03-22T04:34:55.601Z,2.80
2019-03-22T04:36:01.292Z,2.80
2019-03-22T04:37:06.878Z,2.80
2019-03-22T04:38:12.561Z,2.80
2019-03-22T04:39:18.134Z,2.80
2019-03-22T04:40:30.028Z,2.70
2019-03-22T04:41:35.604Z,2.80
2019-03-22T04:42:42.316Z,2.70
2019-03-22T04:43:47.986Z,2.70
2019-03-22T04:44:53.617Z,2.80
2019-03-22T04:45:59.388Z,2.80
2019-03-22T04:47:06.097Z,2.90
2019-03-22T04:48:19.065Z,2.80
2019-03-22T04:49:26.004Z,2.90
2019-03-22T04:50:34.111Z,2.90
2019-03-22T04:51:40.889Z,2.90
2019-03-22T04:52:46.610Z,2.90
2019-03-22T04:53:57.886Z,3.00
2019-03-22T04:55:04.696Z,3.00
2019-03-22T04:56:14.459Z,3.00
2019-03-22T04:57:22.181Z,3.10
2019-03-22T04:58:29.914Z,3.10
2019-03-22T04:59:36.464Z,3.20
2019-03-22T05:00:42.916Z,3.20
2019-03-22T05:01:50.493Z,3.20
2019-03-22T05:02:56.525Z,3.10
2019-03-22T05:04:04.035Z,3.10
2019-03-22T05:05:13.226Z,3.00
2019-03-22T05:06:20.489Z,3.00
2019-03-22T05:07:26.228Z,2.90
2019-03-22T05:08:35.008Z,2.90
2019-03-22T05:09:40.969Z,2.80
2019-03-22T05:10:46.795Z,2.80
2019-03-22T05:11:53.664Z,2.70
2019-03-22T05:13:02.535Z,2.70
2019-03-22T05:14:08.730Z,2.80
2019-03-22T05:15:15.693Z,2.80
2019-03-22T05:16:23.351Z,2.80
2019-03-22T05:17:30.214Z,2.80
2019-03-22T05:18:37.533Z,2.80
2019-03-22T05:19:47.508Z,2.90
2019-03-22T05:20:54.064Z,2.90
2019-03-22T05:22:02.155Z,2.90
2019-03-22T05:23:08.556Z,2.90
2019-03-22T05:24:18.294Z,2.90
2019-03-22T05:25:24.700Z,2.90
2019-03-22T05:26:32.432Z,2.90
2019-03-22T05:27:43.898Z,2.90
2019-03-22T05:28:50.637Z,3.00
2019-03-22T05:29:58.079Z,3.00
2019-03-22T05:31:23.880Z,3.00
2019-03-22T05:32:29.525Z,3.00
2019-03-22T05:33:35.066Z,3.10
2019-03-22T05:34:40.630Z,3.20
2019-03-22T05:35:46.250Z,3.30
2019-03-22T05:36:51.830Z,3.30
2019-03-22T05:37:58.573Z,3.40
2019-03-22T05:39:06.509Z,3.50
2019-03-22T05:40:12.123Z,3.50
2019-03-22T05:41:17.769Z,3.60
2019-03-22T05:42:23.428Z,3.70
2019-03-22T05:43:29.001Z,3.90
2019-03-22T05:44:34.819Z,4.10
2019-03-22T05:45:40.480Z,4.20
2019-03-22T05:46:46.064Z,4.50
2019-03-22T05:47:51.737Z,4.80
2019-03-22T05:48:57.290Z,5.10
2019-03-22T05:50:02.937Z,5.30
2019-03-22T05:51:08.473Z,5.60
2019-03-22T05:52:14.120Z,6.00
2019-03-22T05:53:19.821Z,6.40
2019-03-22T05:54:25.402Z,6.80
2019-03-22T05:55:31.176Z,7.20
2019-03-22T05:56:36.832Z,7.60
2019-03-22T05:57:42.555Z,8.10
2019-03-22T05:58:48.234Z,8.50
2019-03-22T05:59:53.809Z,9.10
2019-03-22T06:00:59.456Z,9.50
2019-03-22T06:02:05.319Z,9.90
2019-03-22T06:03:10.936Z,10.20
2019-03-22T06:04:16.577Z,10.40
2019-03-22T06:05:22.283Z,10.60
2019-03-22T06:06:27.871Z,10.80
2019-03-22T06:07:33.545Z,11.10
2019-03-22T06:08:39.250Z,11.30
2019-03-22T06:09:44.948Z,11.60
2019-03-22T06:10:50.493Z,11.80
2019-03-22T06:11:56.189Z,12.20
2019-03-22T06:13:01.865Z,12.60
2019-03-22T06:14:07.479Z,13.00
2019-03-22T06:15:14.193Z,13.40
2019-03-22T06:16:19.881Z,13.70
2019-03-22T06:17:25.499Z,14.30
2019-03-22T06:18:31.103Z,14.80
2019-03-22T06:19:37.908Z,15.40
2019-03-22T06:20:43.891Z,16.00
2019-03-22T06:21:49.541Z,16.70
2019-03-22T06:22:55.171Z,17.30
2019-03-22T06:24:00.773Z,17.90
2019-03-22T06:25:06.901Z,18.50
2019-03-22T06:26:12.579Z,19.10
2019-03-22T06:27:18.128Z,19.60
2019-03-22T06:28:24.755Z,19.90
2019-03-22T06:29:30.409Z,20.10
2019-03-22T06:30:35.980Z,20.40
2019-03-22T06:31:44.844Z,20.70
2019-03-22T06:32:50.402Z,21.10
2019-03-22T06:33:56.127Z,21.20
2019-03-22T06:35:01.706Z,21.50
2019-03-22T06:36:07.364Z,22.00
2019-03-22T06:37:12.960Z,22.50
2019-03-22T06:38:18.669Z,23.10
2019-03-22T06:39:24.285Z,23.70
2019-03-22T06:40:29.905Z,24.20
2019-03-22T06:41:35.545Z,24.40
2019-03-22T06:42:41.408Z,24.50
2019-03-22T06:43:47.147Z,24.80
2019-03-22T06:44:52.816Z,25.20
2019-03-22T06:45:58.492Z,25.60
2019-03-22T06:47:04.111Z,26.00
2019-03-22T06:48:09.719Z,26.50
2019-03-22T06:49:15.368Z,26.70
2019-03-22T06:50:21.038Z,26.90
2019-03-22T06:51:26.580Z,27.30
2019-03-22T06:52:32.233Z,27.60
2019-03-22T06:53:40.077Z,27.90
2019-03-22T06:54:45.683Z,28.30
2019-03-22T06:55:51.278Z,28.70
2019-03-22T06:56:56.934Z,29.30
2019-03-22T06:58:02.637Z,29.80
2019-03-22T06:59:08.296Z,30.30
2019-03-22T07:00:13.877Z,30.50
2019-03-22T07:01:19.447Z,30.60
2019-03-22T07:02:25.015Z,30.80
2019-03-22T07:03:30.646Z,31.10
2019-03-22T07:04:36.210Z,31.30
2019-03-22T07:05:41.901Z,31.60
2019-03-22T07:06:47.449Z,31.90
2019-03-22T07:07:53.054Z,32.30
2019-03-22T07:08:58.654Z,32.70
2019-03-22T07:10:04.928Z,33.00
2019-03-22T07:11:10.597Z,33.20
2019-03-22T07:12:16.179Z,33.60
2019-03-22T07:13:21.796Z,33.90
2019-03-22T07:14:27.497Z,34.10
2019-03-22T07:15:33.127Z,34.40
2019-03-22T07:16:38.778Z,34.60
2019-03-22T07:17:44.333Z,34.70
2019-03-22T07:18:49.913Z,34.40
2019-03-22T07:19:55.533Z,34.50
2019-03-22T07:21:01.150Z,34.50
2019-03-22T07:22:06.721Z,34.30
2019-03-22T07:23:12.305Z,34.30
2019-03-22T07:24:18.015Z,33.50
2019-03-22T07:25:23.685Z,33.50
2019-03-22T07:26:30.178Z,33.30
2019-03-22T07:27:35.869Z,33.50
2019-03-22T07:28:41.501Z,33.70
2019-03-22T07:29:47.112Z,33.40
2019-03-22T07:30:52.778Z,31.60
2019-03-22T07:31:58.407Z,31.70
2019-03-22T07:33:04.054Z,31.70
2019-03-22T07:34:09.593Z,32.20
2019-03-22T07:35:15.207Z,32.30
2019-03-22T07:36:20.840Z,32.60
2019-03-22T07:37:26.385Z,32.20
2019-03-22T07:38:32.117Z,32.20
2019-03-22T07:39:37.693Z,32.10
2019-03-22T07:40:43.316Z,31.30
2019-03-22T07:41:48.972Z,31.00
2019-03-22T07:42:54.697Z,30.20
2019-03-22T07:44:00.255Z,30.00
2019-03-22T07:45:06.136Z,30.70
2019-03-22T07:46:11.786Z,31.40
2019-03-22T07:47:17.400Z,32.00
2019-03-22T07:48:23.081Z,32.70
2019-03-22T07:49:28.649Z,31.80
2019-03-22T07:50:34.270Z,32.30
2019-03-22T07:51:39.941Z,32.90
2019-03-22T07:52:45.584Z,33.30
2019-03-22T07:53:51.240Z,33.10
2019-03-22T07:54:56.870Z,33.50
2019-03-22T07:56:02.493Z,33.30
2019-03-22T07:57:08.226Z,32.80
2019-03-22T07:58:13.860Z,32.40
2019-03-22T07:59:19.564Z,32.80
2019-03-22T08:00:30.603Z,32.00
2019-03-22T08:01:32.756Z,31.40
2019-03-22T08:02:38.345Z,31.40
2019-03-22T08:03:43.997Z,31.30
2019-03-22T08:04:49.571Z,31.00
2019-03-22T08:06:14.025Z,31.60
2019-03-22T08:07:30.942Z,31.00
2019-03-22T08:08:47.476Z,30.00
2019-03-22T08:10:03.925Z,30.00
2019-03-22T08:11:24.591Z,29.80
2019-03-22T08:12:40.360Z,29.30
2019-03-22T08:13:56.784Z,28.10
2019-03-22T08:15:13.445Z,27.80
2019-03-22T08:16:29.794Z,28.50
2019-03-22T08:17:46.371Z,29.40
2019-03-22T08:19:03.566Z,30.20
2019-03-22T08:20:20.245Z,31.00
2019-03-22T08:21:36.784Z,31.20
2019-03-22T08:22:53.461Z,30.50
2019-03-22T08:24:10.535Z,30.50
2019-03-22T08:25:27.083Z,30.40
2019-03-22T08:26:43.557Z,31.20
2019-03-22T08:28:00.214Z,31.70
2019-03-22T08:29:17.317Z,31.80
2019-03-22T08:30:42.574Z,31.70
2019-03-22T08:31:52.586Z,31.90
2019-03-22T08:33:09.235Z,32.10
2019-03-22T08:34:25.646Z,31.70
2019-03-22T08:35:42.268Z,31.50
2019-03-22T08:36:58.935Z,31.90
2019-03-22T08:38:17.537Z,31.40
2019-03-22T08:39:33.957Z,30.90
2019-03-22T08:40:50.712Z,31.30
2019-03-22T08:42:07.135Z,31.20
2019-03-22T08:43:24.254Z,31.30
2019-03-22T08:44:41.724Z,31.10
2019-03-22T08:45:58.690Z,31.70
2019-03-22T08:47:15.353Z,30.80
2019-03-22T08:48:32.528Z,31.10
2019-03-22T08:49:49.131Z,30.60
2019-03-22T08:51:05.709Z,31.30
2019-03-22T08:52:22.407Z,31.90
2019-03-22T08:53:38.706Z,32.60
2019-03-22T08:54:55.332Z,33.20
2019-03-22T08:56:12.372Z,32.90
2019-03-22T08:57:28.997Z,33.10
2019-03-22T08:58:45.565Z,33.30
2019-03-22T09:00:02.251Z,33.60
2019-03-22T09:01:19.374Z,33.40
2019-03-22T09:02:35.897Z,33.30
2019-03-22T09:03:52.414Z,33.60
2019-03-22T09:05:09.200Z,34.00
2019-03-22T09:06:29.731Z,34.40
2019-03-22T09:07:46.949Z,34.70
2019-03-22T09:09:05.087Z,34.50
2019-03-22T09:10:21.732Z,35.00
2019-03-22T09:11:38.049Z,35.00
2019-03-22T09:12:54.578Z,35.30
2019-03-22T09:14:11.882Z,35.50
2019-03-22T09:15:36.107Z,34.60
2019-03-22T09:16:47.086Z,32.80
2019-03-22T09:18:04.469Z,32.30
2019-03-22T09:19:21.167Z,32.30
2019-03-22T09:20:38.403Z,32.60
2019-03-22T09:21:54.932Z,32.80
2019-03-22T09:23:11.486Z,32.70
2019-03-22T09:24:38.516Z,32.40
2019-03-22T09:25:46.768Z,30.50
2019-03-22T09:27:03.947Z,31.00
2019-03-22T09:28:20.574Z,31.00
2019-03-22T09:29:37.107Z,30.80
2019-03-22T09:30:53.848Z,31.00
2019-03-22T09:32:10.922Z,30.80
2019-03-22T09:33:27.739Z,30.60
2019-03-22T09:34:44.846Z,30.40
2019-03-22T09:36:01.446Z,29.80
2019-03-22T09:37:17.814Z,29.10
2019-03-22T09:38:34.885Z,28.40
2019-03-22T09:39:51.305Z,28.10
2019-03-22T09:41:07.902Z,28.10
2019-03-22T09:42:24.422Z,28.40
2019-03-22T09:43:41.083Z,27.70
2019-03-22T09:44:57.796Z,28.20
2019-03-22T09:46:14.417Z,28.10
2019-03-22T09:47:31.502Z,28.70
2019-03-22T09:48:47.830Z,28.90
2019-03-22T09:50:04.525Z,29.00
2019-03-22T09:51:21.081Z,28.40
2019-03-22T09:52:38.107Z,27.40
2019-03-22T09:53:55.184Z,27.20
2019-03-22T09:55:14.107Z,27.60
2019-03-22T09:56:30.278Z,27.30
2019-03-22T09:57:49.333Z,27.60
2019-03-22T09:59:05.169Z,28.00
2019-03-22T10:00:21.684Z,28.10
2019-03-22T10:01:38.343Z,28.40
2019-03-22T10:02:55.772Z,28.60
2019-03-22T10:04:12.135Z,28.80
2019-03-22T10:05:28.457Z,28.70
2019-03-22T10:06:45.307Z,28.60
2019-03-22T10:08:02.714Z,28.50
2019-03-22T10:09:20.325Z,28.60
2019-03-22T10:10:36.787Z,28.40
2019-03-22T10:11:53.840Z,27.90
2019-03-22T10:13:10.455Z,27.40
2019-03-22T10:14:27.031Z,27.30
2019-03-22T10:15:43.324Z,27.30
2019-03-22T10:17:00.008Z,27.40
2019-03-22T10:18:17.018Z,27.40
2019-03-22T10:19:33.338Z,27.30
2019-03-22T10:20:49.834Z,27.50
2019-03-22T10:22:05.431Z,27.80
2019-03-22T10:23:29.841Z,28.10
2019-03-22T10:24:46.613Z,28.00
2019-03-22T10:26:03.657Z,28.00
2019-03-22T10:27:20.042Z,28.30
2019-03-22T10:28:36.405Z,28.40
2019-03-22T10:29:52.881Z,27.90
2019-03-22T10:31:09.477Z,27.10
2019-03-22T10:32:26.668Z,27.60
2019-03-22T10:33:43.200Z,27.60
2019-03-22T10:35:00.378Z,27.80
2019-03-22T10:36:17.214Z,27.60
2019-03-22T10:37:34.502Z,26.90
2019-03-22T10:38:51.453Z,26.70
2019-03-22T10:40:08.414Z,26.80
2019-03-22T10:41:25.381Z,26.70
2019-03-22T10:42:41.880Z,26.70
2019-03-22T10:43:58.609Z,26.40
2019-03-22T10:45:17.837Z,26.30
2019-03-22T10:46:34.562Z,26.00
2019-03-22T10:47:52.209Z,25.60
2019-03-22T10:49:08.617Z,25.60
2019-03-22T10:50:25.332Z,25.20
2019-03-22T10:51:41.705Z,25.30
2019-03-22T10:52:58.094Z,25.20
2019-03-22T10:54:14.486Z,25.20
2019-03-22T10:55:31.612Z,24.80
2019-03-22T10:56:48.171Z,24.60
2019-03-22T10:58:19.819Z,24.30
2019-03-22T10:59:24.181Z,24.00
2019-03-22T11:00:40.665Z,23.60
2019-03-22T11:02:03.377Z,23.00
2019-03-22T11:03:15.953Z,22.60
2019-03-22T11:04:31.418Z,21.80
2019-03-22T11:07:32.365Z,21.40
2019-03-22T11:08:48.779Z,20.70
2019-03-22T11:10:05.442Z,20.30
2019-03-22T11:11:21.994Z,19.80
2019-03-22T11:12:38.548Z,19.60
2019-03-22T11:13:55.838Z,19.60
2019-03-22T11:15:12.550Z,19.40
2019-03-22T11:16:28.934Z,19.10
2019-03-22T11:17:46.273Z,18.90
2019-03-22T11:19:02.724Z,18.90
2019-03-22T11:20:19.225Z,18.80
2019-03-22T11:21:35.533Z,18.80
2019-03-22T11:22:52.033Z,18.70
2019-03-22T11:24:08.656Z,18.60
2019-03-22T11:25:25.056Z,18.30
2019-03-22T11:26:41.557Z,18.30
2019-03-22T11:27:58.160Z,18.30
2019-03-22T11:29:15.257Z,18.30
2019-03-22T11:30:31.664Z,18.30
2019-03-22T11:31:48.274Z,18.30
2019-03-22T11:33:04.868Z,18.20
2019-03-22T11:34:21.310Z,18.20
2019-03-22T11:35:37.903Z,18.20
2019-03-22T11:36:54.315Z,18.10
2019-03-22T11:38:11.147Z,18.00
2019-03-22T11:39:28.107Z,18.00
2019-03-22T11:40:44.584Z,17.90
2019-03-22T11:42:01.822Z,17.90
2019-03-22T11:43:18.934Z,18.00
2019-03-22T11:44:35.437Z,18.00
2019-03-22T11:45:51.936Z,18.10
2019-03-22T11:47:09.615Z,18.20
2019-03-22T11:48:25.976Z,18.20
2019-03-22T11:49:42.239Z,18.20
2019-03-22T11:50:59.234Z,18.20
2019-03-22T11:52:15.721Z,18.30
2019-03-22T11:53:32.318Z,18.30
2019-03-22T11:54:48.853Z,18.30
2019-03-22T11:56:05.325Z,18.30
2019-03-22T11:57:22.502Z,18.20
2019-03-22T11:58:39.370Z,18.40
2019-03-22T11:59:56.016Z,18.50
2019-03-22T12:01:19.266Z,18.50
2019-03-22T12:02:37.553Z,18.50
2019-03-22T12:03:54.003Z,18.50
2019-03-22T12:05:10.763Z,18.60
2019-03-22T12:06:27.391Z,18.70
2019-03-22T12:07:43.950Z,18.90
2019-03-22T12:09:01.070Z,19.00
2019-03-22T12:10:19.316Z,19.00
2019-03-22T12:11:35.862Z,19.10
2019-03-22T12:12:52.317Z,19.10
2019-03-22T12:14:09.353Z,19.20
2019-03-22T12:15:26.058Z,19.10
2019-03-22T12:16:43.109Z,19.10
2019-03-22T12:17:59.508Z,19.20
2019-03-22T12:19:15.752Z,19.20
2019-03-22T12:20:32.337Z,19.20
2019-03-22T12:21:49.553Z,19.10
2019-03-22T12:23:05.960Z,19.10
2019-03-22T12:24:21.431Z,18.80
2019-03-22T12:25:41.605Z,18.90
2019-03-22T12:26:57.999Z,19.00
2019-03-22T12:28:14.687Z,19.10
2019-03-22T12:29:31.554Z,19.30
2019-03-22T12:30:47.982Z,19.40
2019-03-22T12:32:04.662Z,19.30
2019-03-22T12:33:21.182Z,19.50
2019-03-22T12:34:37.560Z,19.50
2019-03-22T12:35:54.782Z,19.50
2019-03-22T12:37:11.556Z,19.40
2019-03-22T12:38:27.951Z,19.20
2019-03-22T12:39:44.491Z,19.20
2019-03-22T12:41:00.924Z,19.30
2019-03-22T12:42:17.396Z,19.20
2019-03-22T12:43:34.289Z,19.20
2019-03-22T12:44:50.914Z,19.30
2019-03-22T12:46:08.162Z,19.00
2019-03-22T12:47:24.893Z,19.00
2019-03-22T12:48:41.444Z,19.00
2019-03-22T12:49:57.829Z,18.90
2019-03-22T12:51:14.408Z,19.10
2019-03-22T12:52:31.433Z,19.30
2019-03-22T12:53:47.898Z,19.50
2019-03-22T12:55:04.186Z,19.60
2019-03-22T12:56:21.374Z,19.60
2019-03-22T12:57:38.614Z,19.80
2019-03-22T12:58:55.602Z,19.80
2019-03-22T13:00:12.568Z,20.00
2019-03-22T13:01:37.047Z,20.20
2019-03-22T13:03:01.500Z,20.40
2019-03-22T13:04:18.613Z,20.40
2019-03-22T13:05:35.273Z,20.60
2019-03-22T13:06:53.216Z,20.70
2019-03-22T13:08:09.704Z,20.60
2019-03-22T13:09:26.973Z,20.70
2019-03-22T13:10:43.815Z,20.70
2019-03-22T13:12:00.475Z,20.60
2019-03-22T13:13:17.083Z,20.60
2019-03-22T13:14:33.539Z,20.70
2019-03-22T13:15:49.966Z,20.90
2019-03-22T13:17:06.396Z,21.10
2019-03-22T13:18:22.844Z,21.20
2019-03-22T13:19:40.063Z,21.30
2019-03-22T13:20:56.949Z,21.40
2019-03-22T13:22:13.349Z,21.40
2019-03-22T13:23:30.834Z,21.40
2019-03-22T13:24:47.736Z,21.40
2019-03-22T13:26:03.158Z,21.40
2019-03-22T13:27:27.535Z,21.40
2019-03-22T13:28:51.958Z,21.40
2019-03-22T13:30:08.966Z,21.00
2019-03-22T13:31:25.460Z,21.00
2019-03-22T13:32:51.826Z,21.10
2019-03-22T13:34:00.347Z,21.20
2019-03-22T13:35:17.504Z,21.30
2019-03-22T13:36:34.424Z,21.40
2019-03-22T13:37:51.051Z,21.50
2019-03-22T13:39:07.976Z,21.70
2019-03-22T13:40:25.153Z,21.80
2019-03-22T13:41:41.842Z,21.70
2019-03-22T13:42:58.182Z,21.50
2019-03-22T13:44:15.548Z,21.60
2019-03-22T13:45:32.090Z,21.60
2019-03-22T13:46:49.968Z,21.70
2019-03-22T13:48:06.565Z,21.70
2019-03-22T13:49:23.353Z,21.80
2019-03-22T13:50:39.794Z,21.80
2019-03-22T13:51:56.792Z,21.50
2019-03-22T13:53:14.098Z,21.60
2019-03-22T13:54:31.317Z,21.40
2019-03-22T13:55:47.771Z,21.40
2019-03-22T13:57:04.040Z,21.40
2019-03-22T13:58:20.642Z,21.50
2019-03-22T13:59:37.993Z,21.40
2019-03-22T14:00:55.182Z,21.40
2019-03-22T14:02:11.913Z,21.40
2019-03-22T14:03:28.245Z,21.50
2019-03-22T14:04:45.450Z,21.50
2019-03-22T14:06:02.487Z,21.50
2019-03-22T14:07:19.225Z,21.40
2019-03-22T14:08:36.522Z,21.40
2019-03-22T14:09:53.789Z,21.30
2019-03-22T14:11:10.374Z,21.40
2019-03-22T14:12:36.637Z,21.40
2019-03-22T14:13:45.502Z,21.50
2019-03-22T14:15:02.001Z,21.50
2019-03-22T14:16:26.459Z,21.60
2019-03-22T14:17:42.855Z,21.60
2019-03-22T14:19:00.128Z,21.70
2019-03-22T14:20:17.930Z,21.80
2019-03-22T14:21:35.055Z,21.70
2019-03-22T14:22:53.950Z,21.80
2019-03-22T14:24:10.937Z,21.80
2019-03-22T14:25:27.302Z,21.80
2019-03-22T14:26:43.710Z,21.70
2019-03-22T14:28:00.273Z,21.60
2019-03-22T14:29:16.728Z,21.50
2019-03-22T14:30:33.675Z,21.30
2019-03-22T14:31:50.291Z,21.10
2019-03-22T14:33:13.236Z,21.20
2019-03-22T14:34:25.187Z,21.30
2019-03-22T14:35:42.313Z,21.20
2019-03-22T14:36:58.729Z,21.20
2019-03-22T14:38:15.093Z,21.10
2019-03-22T14:39:31.581Z,21.10
2019-03-22T14:40:48.348Z,21.20
2019-03-22T14:42:04.784Z,21.10
2019-03-22T14:43:21.410Z,21.10
2019-03-22T14:44:38.682Z,21.10
2019-03-22T14:45:55.334Z,21.20
2019-03-22T14:47:13.080Z,21.30
2019-03-22T14:48:29.782Z,21.30
2019-03-22T14:49:46.676Z,21.30
2019-03-22T14:51:03.247Z,21.30
2019-03-22T14:52:19.938Z,21.10
2019-03-22T14:53:37.244Z,20.90
2019-03-22T14:54:53.949Z,20.80
2019-03-22T14:56:10.777Z,20.70
2019-03-22T14:57:27.208Z,20.70
2019-03-22T14:58:43.606Z,20.80
2019-03-22T15:00:00.813Z,20.80
2019-03-22T15:01:17.379Z,20.90
2019-03-22T15:02:33.913Z,20.90
2019-03-22T15:03:51.268Z,21.00
2019-03-22T15:05:07.948Z,21.10
2019-03-22T15:06:24.725Z,21.20
2019-03-22T15:07:41.174Z,21.10
2019-03-22T15:08:57.500Z,21.20
2019-03-22T15:10:14.046Z,21.40
2019-03-22T15:11:30.441Z,21.50
2019-03-22T15:12:47.036Z,21.70
2019-03-22T15:16:15.398Z,21.80
2019-03-22T15:17:50.756Z,21.70
2019-03-22T15:19:26.418Z,21.80
2019-03-22T15:22:44.429Z,21.90
2019-03-22T15:24:27.776Z,21.90
2019-03-22T15:26:03.108Z,21.90
2019-03-22T15:27:41.506Z,21.80
2019-03-22T15:29:18.566Z,21.80
2019-03-22T15:31:10.145Z,21.30
2019-03-22T15:32:45.670Z,21.30
2019-03-22T15:34:20.997Z,21.20